createdAt,value
2022-11-07T00:00:13.242Z,21.96
2022-11-07T00:02:40.730Z,21.97
2022-11-07T00:05:08.523Z,21.96
2022-11-07T00:07:36.009Z,21.96
2022-11-07T00:10:04.068Z,21.98
2022-11-07T00:12:31.427Z,21.96
2022-11-07T00:15:00.191Z,21.96
2022-11-07T00:17:27.530Z,21.99
2022-11-07T00:19:54.864Z,21.97
2022-11-07T00:22:22.250Z,21.97
2022-11-07T00:24:49.591Z,21.97
2022-11-07T00:27:17.460Z,21.95
2022-11-07T00:29:44.823Z,21.99
2022-11-07T00:32:13.613Z,21.97
2022-11-07T00:34:40.919Z,21.96
2022-11-07T00:37:08.252Z,21.94
2022-11-07T00:39:35.551Z,21.97
2022-11-07T00:42:02.972Z,21.96
2022-11-07T00:44:30.308Z,21.96
2022-11-07T00:46:57.644Z,21.96
2022-11-07T00:49:26.485Z,21.99
2022-11-07T00:51:53.804Z,21.95
2022-11-07T00:54:21.274Z,21.95
2022-11-07T00:56:48.597Z,21.96
2022-11-07T00:59:15.974Z,21.97
2022-11-07T01:01:43.360Z,21.96
2022-11-07T01:04:13.544Z,21.97
2022-11-07T01:06:44.538Z,21.96
2022-11-07T01:09:14.031Z,22.00
2022-11-07T01:11:42.552Z,21.96
2022-11-07T01:14:11.008Z,21.96
2022-11-07T01:16:38.676Z,21.98
2022-11-07T01:19:07.011Z,21.99
2022-11-07T01:21:34.405Z,21.99
2022-11-07T01:24:04.383Z,21.98
2022-11-07T01:26:31.780Z,21.97
2022-11-07T01:28:59.108Z,22.01
2022-11-07T01:31:27.194Z,22.00
2022-11-07T01:33:54.583Z,22.00
2022-11-07T01:36:21.971Z,22.00
2022-11-07T01:38:49.840Z,22.02
2022-11-07T01:41:20.289Z,22.01
2022-11-07T01:43:49.957Z,22.02
2022-11-07T01:46:18.453Z,22.06
2022-11-07T01:48:56.243Z,22.03
2022-11-07T01:51:24.926Z,22.00
2022-11-07T01:53:54.926Z,22.02
2022-11-07T01:56:29.567Z,22.02
2022-11-07T01:58:58.641Z,22.01
2022-11-07T02:01:26.443Z,22.01
2022-11-07T02:03:56.930Z,22.01
2022-11-07T02:06:32.350Z,22.00
2022-11-07T02:09:00.072Z,22.03
2022-11-07T02:11:29.327Z,21.99
2022-11-07T02:13:56.791Z,22.02
2022-11-07T02:16:24.135Z,22.02
2022-11-07T02:18:51.698Z,22.02
2022-11-07T02:21:30.208Z,22.00
2022-11-07T02:24:06.670Z,22.02
2022-11-07T02:26:37.489Z,21.99
2022-11-07T02:29:09.069Z,22.01
2022-11-07T02:31:36.488Z,22.00
2022-11-07T02:34:04.039Z,22.02
2022-11-07T02:36:31.693Z,22.01
2022-11-07T02:39:00.525Z,22.01
2022-11-07T02:41:30.836Z,22.00
2022-11-07T02:44:03.133Z,21.99
2022-11-07T02:46:32.098Z,21.96
2022-11-07T02:49:01.318Z,21.96
2022-11-07T02:51:30.249Z,21.99
2022-11-07T02:53:57.721Z,21.97
2022-11-07T02:56:25.461Z,21.98
2022-11-07T02:58:52.926Z,21.96
2022-11-07T03:01:22.856Z,21.92
2022-11-07T03:03:51.151Z,21.93
2022-11-07T03:06:23.540Z,21.94
2022-11-07T03:08:51.328Z,21.74
2022-11-07T03:11:19.026Z,21.87
2022-11-07T03:13:47.012Z,21.88
2022-11-07T03:16:15.691Z,21.88
2022-11-07T03:18:44.752Z,21.88
2022-11-07T03:21:12.124Z,21.90
2022-11-07T03:23:40.056Z,21.90
2022-11-07T03:26:07.404Z,21.89
2022-11-07T03:28:35.354Z,21.91
2022-11-07T03:31:04.066Z,21.92
2022-11-07T03:33:32.033Z,21.92
2022-11-07T03:36:00.876Z,21.93
2022-11-07T03:38:28.767Z,21.93
2022-11-07T03:40:56.205Z,21.92
2022-11-07T03:43:23.552Z,21.95
2022-11-07T03:45:51.070Z,21.96
2022-11-07T03:48:18.563Z,21.96
2022-11-07T03:50:46.037Z,21.97
2022-11-07T03:53:17.257Z,21.94
2022-11-07T03:55:46.992Z,21.91
2022-11-07T03:58:14.694Z,21.76
2022-11-07T04:00:42.188Z,21.73
2022-11-07T04:03:09.503Z,21.75
2022-11-07T04:05:36.908Z,21.74
2022-11-07T04:08:04.584Z,21.70
2022-11-07T04:10:33.572Z,21.70
2022-11-07T04:13:00.990Z,21.60
2022-11-07T04:15:28.787Z,21.60
2022-11-07T04:17:56.223Z,21.62
2022-11-07T04:20:23.802Z,21.63
2022-11-07T04:22:51.181Z,21.69
2022-11-07T04:25:18.624Z,21.72
2022-11-07T04:27:48.535Z,21.76
2022-11-07T04:30:17.549Z,21.76
2022-11-07T04:32:45.165Z,21.79
2022-11-07T04:35:12.590Z,21.80
2022-11-07T04:37:40.818Z,21.80
2022-11-07T04:40:09.786Z,21.81
2022-11-07T04:42:37.574Z,21.83
2022-11-07T04:45:08.108Z,21.83
2022-11-07T04:47:40.230Z,21.84
2022-11-07T04:50:10.355Z,21.86
2022-11-07T04:52:37.947Z,21.85
2022-11-07T04:55:06.355Z,21.84
2022-11-07T04:57:33.738Z,21.88
2022-11-07T05:00:01.195Z,21.84
2022-11-07T05:02:30.837Z,21.75
2022-11-07T05:04:58.359Z,21.87
2022-11-07T05:07:25.727Z,21.85
2022-11-07T05:09:53.353Z,21.82
2022-11-07T05:12:20.868Z,21.83
2022-11-07T05:14:48.365Z,21.83
2022-11-07T05:17:16.545Z,21.81
2022-11-07T05:19:45.792Z,21.87
2022-11-07T05:22:13.180Z,21.86
2022-11-07T05:24:40.690Z,21.86
2022-11-07T05:27:16.250Z,21.70
2022-11-07T05:29:43.718Z,21.85
2022-11-07T05:32:11.105Z,21.93
2022-11-07T05:34:38.586Z,21.91
2022-11-07T05:37:09.372Z,21.91
2022-11-07T05:39:36.965Z,21.79
2022-11-07T05:42:05.393Z,21.66
2022-11-07T05:44:32.995Z,21.81
2022-11-07T05:47:00.509Z,21.82
2022-11-07T05:49:27.847Z,21.88
2022-11-07T05:51:55.464Z,21.86
2022-11-07T05:54:24.410Z,21.88
2022-11-07T05:56:55.806Z,21.93
2022-11-07T05:59:23.870Z,21.88
2022-11-07T06:01:52.218Z,21.91
2022-11-07T06:04:19.591Z,21.89
2022-11-07T06:06:47.200Z,21.88
2022-11-07T06:09:14.654Z,21.90
2022-11-07T06:11:43.439Z,21.90
2022-11-07T06:14:10.825Z,21.93
2022-11-07T06:16:38.299Z,21.94
2022-11-07T06:19:05.847Z,21.92
2022-11-07T06:21:34.641Z,22.00
2022-11-07T06:24:03.172Z,21.96
2022-11-07T06:26:30.959Z,21.94
2022-11-07T06:28:59.712Z,21.97
2022-11-07T06:31:27.103Z,21.94
2022-11-07T06:33:54.480Z,21.98
2022-11-07T06:36:22.060Z,21.99
2022-11-07T06:38:52.066Z,21.95
2022-11-07T06:41:20.154Z,21.94
2022-11-07T06:43:47.620Z,21.97
2022-11-07T06:46:16.543Z,21.96
2022-11-07T06:48:44.003Z,22.01
2022-11-07T06:51:11.694Z,21.99
2022-11-07T06:53:41.388Z,21.94
2022-11-07T06:56:15.598Z,21.96
2022-11-07T06:58:43.147Z,21.97
2022-11-07T07:01:12.594Z,22.03
2022-11-07T07:03:42.260Z,22.00
2022-11-07T07:06:13.924Z,21.97
2022-11-07T07:08:42.662Z,21.98
2022-11-07T07:11:12.202Z,22.04
2022-11-07T07:13:40.063Z,21.94
2022-11-07T07:16:08.172Z,22.01
2022-11-07T07:18:35.993Z,21.99
2022-11-07T07:21:06.938Z,22.01
2022-11-07T07:23:34.809Z,22.06
2022-11-07T07:28:45.930Z,22.11
2022-11-07T07:31:22.272Z,22.04
2022-11-07T07:33:50.005Z,21.85
2022-11-07T07:36:20.989Z,21.99
2022-11-07T07:38:48.988Z,21.90
2022-11-07T07:41:17.485Z,21.90
2022-11-07T07:43:45.486Z,21.90
2022-11-07T07:46:16.123Z,21.92
2022-11-07T07:48:43.559Z,22.01
2022-11-07T07:51:10.919Z,21.95
2022-11-07T07:53:40.392Z,22.02
2022-11-07T07:58:49.461Z,21.86
2022-11-07T08:01:16.845Z,21.89
2022-11-07T08:04:00.827Z,21.93
2022-11-07T08:06:29.404Z,21.94
2022-11-07T08:08:58.560Z,21.89
2022-11-07T08:11:25.998Z,21.92
2022-11-07T08:13:58.389Z,21.88
2022-11-07T08:16:28.303Z,20.79
2022-11-07T08:18:55.639Z,20.38
2022-11-07T08:21:23.039Z,20.95
2022-11-07T08:23:50.531Z,21.32
2022-11-07T08:26:19.860Z,21.51
2022-11-07T08:28:47.179Z,21.64
2022-11-07T08:31:14.724Z,21.53
2022-11-07T08:33:42.307Z,21.67
2022-11-07T08:36:10.617Z,21.70
2022-11-07T08:38:38.205Z,21.75
2022-11-07T08:41:05.969Z,21.60
2022-11-07T08:43:35.035Z,21.83
2022-11-07T08:46:02.446Z,21.82
2022-11-07T08:48:30.322Z,21.76
2022-11-07T08:50:58.755Z,21.86
2022-11-07T08:53:27.112Z,21.74
2022-11-07T08:56:01.611Z,21.73
2022-11-07T08:58:30.344Z,21.80
2022-11-07T09:00:59.899Z,21.76
2022-11-07T09:06:15.382Z,21.83
2022-11-07T09:08:42.729Z,21.80
2022-11-07T09:11:10.496Z,21.83
2022-11-07T09:13:37.907Z,21.85
2022-11-07T09:16:07.344Z,21.88
2022-11-07T09:18:34.693Z,21.90
2022-11-07T09:21:02.193Z,21.90
2022-11-07T09:23:29.657Z,21.88
2022-11-07T09:25:59.602Z,21.87
2022-11-07T09:28:27.335Z,21.85
2022-11-07T09:30:55.405Z,21.94
2022-11-07T09:33:25.129Z,21.88
2022-11-07T09:35:52.437Z,21.90
2022-11-07T09:38:20.119Z,21.93
2022-11-07T09:40:53.445Z,21.56
2022-11-07T09:43:35.064Z,21.81
2022-11-07T09:46:12.781Z,21.50
2022-11-07T09:48:45.493Z,21.77
2022-11-07T09:51:17.821Z,21.69
2022-11-07T09:53:48.127Z,21.84
2022-11-07T09:56:16.257Z,21.89
2022-11-07T09:58:44.800Z,21.95
2022-11-07T10:01:14.277Z,21.97
2022-11-07T10:04:10.304Z,21.97
2022-11-07T10:06:32.364Z,21.97
2022-11-07T10:09:11.091Z,22.00
2022-11-07T10:11:45.248Z,22.07
2022-11-07T10:14:22.769Z,22.07
2022-11-07T10:17:03.171Z,22.03
2022-11-07T10:19:45.042Z,21.96
2022-11-07T10:22:24.114Z,22.00
2022-11-07T10:25:05.011Z,22.02
2022-11-07T10:27:33.089Z,22.01
2022-11-07T10:30:01.606Z,22.04
2022-11-07T10:32:42.147Z,22.04
2022-11-07T10:35:21.903Z,22.06
2022-11-07T10:37:53.374Z,22.07
2022-11-07T10:40:21.124Z,22.04
2022-11-07T10:42:49.272Z,22.09
2022-11-07T10:45:18.321Z,22.06
2022-11-07T10:47:56.687Z,22.10
2022-11-07T10:50:25.945Z,22.12
2022-11-07T10:52:56.001Z,22.13
2022-11-07T10:55:24.468Z,22.09
2022-11-07T10:57:58.945Z,22.05
2022-11-07T11:00:28.675Z,22.06
2022-11-07T11:02:56.550Z,22.01
2022-11-07T11:05:28.116Z,21.99
2022-11-07T11:07:57.952Z,22.08
2022-11-07T11:10:27.854Z,22.10
2022-11-07T11:12:55.231Z,22.13
2022-11-07T11:15:24.617Z,22.11
2022-11-07T11:18:00.749Z,22.23
2022-11-07T11:20:36.697Z,22.18
2022-11-07T11:23:06.396Z,22.13
2022-11-07T11:25:42.695Z,22.13
2022-11-07T11:28:19.205Z,21.98
2022-11-07T11:30:51.087Z,21.94
2022-11-07T11:33:25.261Z,22.03
2022-11-07T11:35:58.639Z,22.03
2022-11-07T11:38:30.278Z,22.07
2022-11-07T11:41:07.645Z,22.12
2022-11-07T11:43:41.830Z,22.07
2022-11-07T11:46:14.808Z,22.02
2022-11-07T11:48:48.519Z,22.01
2022-11-07T11:51:24.297Z,21.99
2022-11-07T11:53:51.957Z,21.97
2022-11-07T11:56:30.972Z,21.94
2022-11-07T11:59:34.108Z,21.89
2022-11-07T12:02:20.322Z,21.92
2022-11-07T12:04:56.654Z,21.90
2022-11-07T12:07:46.058Z,21.74
2022-11-07T12:10:23.780Z,21.76
2022-11-07T12:13:04.380Z,21.81
2022-11-07T12:15:44.000Z,21.80
2022-11-07T12:18:19.330Z,21.81
2022-11-07T12:21:01.291Z,21.85
2022-11-07T12:23:46.014Z,21.86
2022-11-07T12:26:21.352Z,21.82
2022-11-07T12:28:59.902Z,21.81
2022-11-07T12:31:42.224Z,21.81
2022-11-07T12:34:22.298Z,21.74
2022-11-07T12:36:59.688Z,21.75
2022-11-07T12:39:49.957Z,21.73
2022-11-07T12:42:31.290Z,21.75
2022-11-07T12:45:10.325Z,21.75
2022-11-07T12:47:55.526Z,21.73
2022-11-07T12:50:33.876Z,21.75
2022-11-07T12:53:23.110Z,21.72
2022-11-07T12:55:57.229Z,21.70
2022-11-07T12:58:29.256Z,21.72
2022-11-07T13:00:58.073Z,21.75
2022-11-07T13:03:41.692Z,21.72
2022-11-07T13:06:15.868Z,21.71
2022-11-07T13:08:52.331Z,21.66
2022-11-07T13:11:29.206Z,21.57
2022-11-07T13:14:12.989Z,21.65
2022-11-07T13:16:50.577Z,21.66
2022-11-07T13:19:32.619Z,21.66
2022-11-07T13:22:02.250Z,21.53
2022-11-07T13:24:30.863Z,21.51
2022-11-07T13:27:00.266Z,21.58
2022-11-07T13:29:35.699Z,21.69
2022-11-07T13:32:09.067Z,21.71
2022-11-07T13:34:52.140Z,21.73
2022-11-07T13:37:25.655Z,21.64
2022-11-07T13:39:58.841Z,21.63
2022-11-07T13:42:31.602Z,21.62
2022-11-07T13:45:08.101Z,21.63
2022-11-07T13:47:41.667Z,21.62
2022-11-07T13:50:19.937Z,21.57
2022-11-07T13:52:56.880Z,21.61
2022-11-07T13:55:29.448Z,21.65
2022-11-07T13:58:02.615Z,21.62
2022-11-07T14:00:32.040Z,21.59
2022-11-07T14:03:00.460Z,21.59
2022-11-07T14:05:30.499Z,21.53
2022-11-07T14:08:02.675Z,21.49
2022-11-07T14:10:34.355Z,21.52
2022-11-07T14:13:07.814Z,21.55
2022-11-07T14:15:36.650Z,21.53
2022-11-07T14:18:05.076Z,21.55
2022-11-07T14:20:32.537Z,21.55
2022-11-07T14:23:00.908Z,21.10
2022-11-07T14:25:30.486Z,21.32
2022-11-07T14:27:58.690Z,21.43
2022-11-07T14:30:30.446Z,21.46
2022-11-07T14:32:59.961Z,21.53
2022-11-07T14:35:29.325Z,21.55
2022-11-07T14:37:57.211Z,21.55
2022-11-07T14:40:25.808Z,21.55
2022-11-07T14:42:53.964Z,21.53
2022-11-07T14:45:46.786Z,21.49
2022-11-07T14:48:13.363Z,21.52
2022-11-07T14:50:42.029Z,21.51
2022-11-07T14:53:14.519Z,21.49
2022-11-07T14:55:46.716Z,21.49
2022-11-07T14:58:16.663Z,21.47
2022-11-07T15:00:52.199Z,21.43
2022-11-07T15:03:22.973Z,21.42
2022-11-07T15:05:50.429Z,21.41
2022-11-07T15:08:29.734Z,21.32
2022-11-07T15:11:05.952Z,21.37
2022-11-07T15:13:34.374Z,21.35
2022-11-07T15:16:06.127Z,21.38
2022-11-07T15:18:39.272Z,21.41
2022-11-07T15:21:08.878Z,21.45
2022-11-07T15:23:36.540Z,21.45
2022-11-07T15:26:12.615Z,21.45
2022-11-07T15:28:48.249Z,21.46
2022-11-07T15:31:20.883Z,21.37
2022-11-07T15:33:50.059Z,21.43
2022-11-07T15:36:18.469Z,21.41
2022-11-07T15:38:46.517Z,21.43
2022-11-07T15:41:14.312Z,21.44
2022-11-07T15:43:41.844Z,21.45
2022-11-07T15:46:22.214Z,21.43
2022-11-07T15:48:51.262Z,21.42
2022-11-07T15:51:18.685Z,21.44
2022-11-07T15:53:46.152Z,21.42
2022-11-07T15:56:16.349Z,21.45
2022-11-07T15:58:43.895Z,21.46
2022-11-07T16:01:11.493Z,21.39
2022-11-07T16:03:39.519Z,21.42
2022-11-07T16:06:16.796Z,21.45
2022-11-07T16:08:44.759Z,21.45
2022-11-07T16:11:12.098Z,21.46
2022-11-07T16:13:39.564Z,21.48
2022-11-07T16:16:08.089Z,21.44
2022-11-07T16:18:43.042Z,21.45
2022-11-07T16:21:11.925Z,21.48
2022-11-07T16:23:39.352Z,21.47
2022-11-07T16:26:07.241Z,21.49
2022-11-07T16:28:35.816Z,21.51
2022-11-07T16:31:03.377Z,21.52
2022-11-07T16:33:31.116Z,21.46
2022-11-07T16:36:00.267Z,21.45
2022-11-07T16:38:34.927Z,21.43
2022-11-07T16:41:03.196Z,21.40
2022-11-07T16:43:30.632Z,21.40
2022-11-07T16:45:58.020Z,21.39
2022-11-07T16:48:27.419Z,21.39
2022-11-07T16:50:56.015Z,21.32
2022-11-07T16:53:24.298Z,21.36
2022-11-07T16:55:54.848Z,21.39
2022-11-07T16:58:24.946Z,21.37
2022-11-07T17:00:53.314Z,21.42
2022-11-07T17:03:21.244Z,21.40
2022-11-07T17:05:48.722Z,21.41
2022-11-07T17:08:19.264Z,21.38
2022-11-07T17:10:46.836Z,21.43
2022-11-07T17:13:16.144Z,21.44
2022-11-07T17:15:44.080Z,21.42
2022-11-07T17:18:18.619Z,21.42
2022-11-07T17:20:51.731Z,21.40
2022-11-07T17:23:24.088Z,21.40
2022-11-07T17:25:56.236Z,21.39
2022-11-07T17:28:25.276Z,21.37
2022-11-07T17:30:52.754Z,21.35
2022-11-07T17:33:20.252Z,21.29
2022-11-07T17:35:51.080Z,21.34
2022-11-07T17:38:18.796Z,21.34
2022-11-07T17:40:46.541Z,21.32
2022-11-07T17:43:13.947Z,21.33
2022-11-07T17:45:42.750Z,21.30
2022-11-07T17:48:10.729Z,21.32
2022-11-07T17:50:38.625Z,20.78
2022-11-07T17:53:06.004Z,20.84
2022-11-07T17:55:33.694Z,21.16
2022-11-07T17:58:01.097Z,21.20
2022-11-07T18:00:28.586Z,21.25
2022-11-07T18:02:57.646Z,21.28
2022-11-07T18:05:30.127Z,21.29
2022-11-07T18:07:59.261Z,21.35
2022-11-07T18:10:26.632Z,21.32
2022-11-07T18:12:56.190Z,21.32
2022-11-07T18:15:23.612Z,21.40
2022-11-07T18:17:51.200Z,21.38
2022-11-07T18:20:20.081Z,21.38
2022-11-07T18:22:47.421Z,21.39
2022-11-07T18:25:14.868Z,21.39
2022-11-07T18:27:42.244Z,21.42
2022-11-07T18:30:11.094Z,21.35
2022-11-07T18:32:38.634Z,21.39
2022-11-07T18:35:06.695Z,21.36
2022-11-07T18:37:35.947Z,21.36
2022-11-07T18:40:03.805Z,21.37
2022-11-07T18:42:31.227Z,21.32
2022-11-07T18:44:58.743Z,21.35
2022-11-07T18:47:26.145Z,21.30
2022-11-07T18:49:57.073Z,21.29
2022-11-07T18:52:24.847Z,21.32
2022-11-07T18:54:53.813Z,21.28
2022-11-07T18:57:21.163Z,21.27
2022-11-07T18:59:48.494Z,21.23
2022-11-07T19:02:16.875Z,21.21
2022-11-07T19:04:44.304Z,21.25
2022-11-07T19:07:11.683Z,21.20
2022-11-07T19:09:39.198Z,21.25
2022-11-07T19:12:08.218Z,21.27
2022-11-07T19:14:35.637Z,21.24
2022-11-07T19:17:03.077Z,21.20
2022-11-07T19:19:30.412Z,21.21
2022-11-07T19:21:57.747Z,21.18
2022-11-07T19:24:25.089Z,21.18
2022-11-07T19:26:52.428Z,21.25
2022-11-07T19:29:21.810Z,21.28
2022-11-07T19:31:49.359Z,21.30
2022-11-07T19:34:16.648Z,21.24
2022-11-07T19:36:44.024Z,21.19
2022-11-07T19:39:11.521Z,21.26
2022-11-07T19:41:38.886Z,21.23
2022-11-07T19:44:06.439Z,21.23
2022-11-07T19:46:35.286Z,21.21
2022-11-07T19:49:02.705Z,21.20
2022-11-07T19:51:30.057Z,21.21
2022-11-07T19:53:59.507Z,21.18
2022-11-07T19:56:28.542Z,21.19
2022-11-07T19:58:55.980Z,21.13
2022-11-07T20:01:25.415Z,21.16
2022-11-07T20:03:55.605Z,21.18
2022-11-07T20:06:25.174Z,21.11
2022-11-07T20:08:52.787Z,21.09
2022-11-07T20:11:22.385Z,20.99
2022-11-07T20:13:49.768Z,21.07
2022-11-07T20:16:17.905Z,21.00
2022-11-07T20:18:45.299Z,21.02
2022-11-07T20:21:15.578Z,21.09
2022-11-07T20:23:44.538Z,21.13
2022-11-07T20:26:14.109Z,21.11
2022-11-07T20:28:41.948Z,21.13
2022-11-07T20:31:10.174Z,21.09
2022-11-07T20:33:37.564Z,21.12
2022-11-07T20:36:08.218Z,21.11
2022-11-07T20:38:37.502Z,21.12
2022-11-07T20:41:06.100Z,21.09
2022-11-07T20:43:34.119Z,21.00
2022-11-07T20:46:03.885Z,21.07
2022-11-07T20:48:30.915Z,21.01
2022-11-07T20:50:58.270Z,21.04
2022-11-07T20:53:25.655Z,21.06
2022-11-07T20:55:54.582Z,21.04
2022-11-07T20:58:21.905Z,21.07
2022-11-07T21:00:51.948Z,21.08
2022-11-07T21:03:20.227Z,21.10
2022-11-07T21:05:50.888Z,21.06
2022-11-07T21:08:19.180Z,21.11
2022-11-07T21:10:48.852Z,21.10
2022-11-07T21:13:18.490Z,21.09
2022-11-07T21:15:49.570Z,21.07
2022-11-07T21:18:17.436Z,21.04
2022-11-07T21:20:44.821Z,21.03
2022-11-07T21:23:12.254Z,21.00
2022-11-07T21:25:41.237Z,21.09
2022-11-07T21:28:08.885Z,21.02
2022-11-07T21:30:37.818Z,21.09
2022-11-07T21:33:05.868Z,21.09
2022-11-07T21:35:33.704Z,21.01
2022-11-07T21:38:01.132Z,21.05
2022-11-07T21:40:28.918Z,21.03
2022-11-07T21:42:56.250Z,20.93
2022-11-07T21:45:23.628Z,20.92
2022-11-07T21:47:52.441Z,20.92
2022-11-07T21:50:43.166Z,20.96
2022-11-07T21:53:08.227Z,20.91
2022-11-07T21:55:35.571Z,20.96
2022-11-07T21:58:02.923Z,20.99
2022-11-07T22:00:35.525Z,20.91
2022-11-07T22:03:04.952Z,20.95
2022-11-07T22:05:32.274Z,20.94
2022-11-07T22:07:59.940Z,20.99
2022-11-07T22:10:27.259Z,20.95
2022-11-07T22:12:54.960Z,21.00
2022-11-07T22:15:22.854Z,21.00
2022-11-07T22:17:50.179Z,21.03
2022-11-07T22:22:45.966Z,21.01
2022-11-07T22:25:13.987Z,21.03
2022-11-07T22:27:41.834Z,21.11
2022-11-07T22:30:10.785Z,21.12
2022-11-07T22:32:38.679Z,21.13
2022-11-07T22:35:09.123Z,21.21
2022-11-07T22:37:38.283Z,21.27
2022-11-07T22:40:06.848Z,21.29
2022-11-07T22:42:34.144Z,21.32
2022-11-07T22:45:02.104Z,21.34
2022-11-07T22:47:29.541Z,21.33
2022-11-07T22:49:56.898Z,21.36
2022-11-07T22:52:24.989Z,21.35
2022-11-07T22:54:53.743Z,21.38
2022-11-07T22:57:21.064Z,21.37
2022-11-07T22:59:48.425Z,21.40
2022-11-07T23:02:15.867Z,21.40
2022-11-07T23:04:43.316Z,21.38
2022-11-07T23:07:10.624Z,21.42
2022-11-07T23:09:38.101Z,21.43
2022-11-07T23:12:07.085Z,21.43
2022-11-07T23:14:34.396Z,21.44
2022-11-07T23:17:02.103Z,21.43
2022-11-07T23:19:29.415Z,21.45
2022-11-07T23:21:56.824Z,21.46
2022-11-07T23:24:24.264Z,21.45
2022-11-07T23:26:51.645Z,21.46
2022-11-07T23:29:21.695Z,21.47
2022-11-07T23:31:50.790Z,21.47
2022-11-07T23:34:19.743Z,21.47
2022-11-07T23:36:50.322Z,21.49
2022-11-07T23:39:19.725Z,21.47
2022-11-07T23:41:47.287Z,21.49
2022-11-07T23:44:15.989Z,21.48
2022-11-07T23:46:45.095Z,21.48
2022-11-07T23:49:14.788Z,21.50
2022-11-07T23:51:43.183Z,21.51
2022-11-07T23:54:10.502Z,21.51
2022-11-07T23:56:37.832Z,21.52
2022-11-07T23:59:05.893Z,21.52
